METAR Data
IDs: Format: Raw Decoded Include TAF

Data at: 2115 UTC 23 Oct 2021

LZIB 232100Z VRB05KT CAVOK 07/M01 Q1031